Time;durP1;ratioP1;P1;durP2;ratioP2;P2;SDS_P1;SDS_P2;PMS_P1;PMS_P2;Temp;Humidity;BMP_temperature;BMP_pressure;BME280_temperature;BME280_humidity;BME280_pressure;Samples;Min_cycle;Max_cycle;Signal;HPM_P1;HPM_P2
2022/06/05 00:02:09;;;;;;;11.75;3.38;;;;;;;18.93;78.71;95477.75;5100916;28;20026;-65
2022/06/05 00:05:07;;;;;;;10.32;3.85;;;;;;;18.93;79.58;95488.44;5101592;28;20546;-65
2022/06/05 00:07:43;;;;;;;7.65;3.72;;;;;;;18.96;79.02;95490.69;5103307;28;20024;-66
2022/06/05 00:10:24;;;;;;;15.30;3.88;;;;;;;18.93;79.38;95491.09;5106699;28;20038;-66
2022/06/05 00:13:20;;;;;;;21.65;4.40;;;;;;;18.93;79.53;95494.56;5100646;28;20438;-66
2022/06/05 00:15:46;;;;;;;9.70;4.38;;;;;;;18.90;78.93;95501.16;5105226;28;20438;-65
2022/06/05 00:18:12;;;;;;;12.32;5.20;;;;;;;18.96;78.74;95509.38;5102543;28;20042;-66
2022/06/05 00:20:41;;;;;;;12.75;3.25;;;;;;;18.94;79.05;95509.56;5100565;28;20019;-64
2022/06/05 00:23:06;;;;;;;14.38;4.13;;;;;;;18.95;79.29;95510.38;5103419;28;20047;-65
2022/06/05 00:25:46;;;;;;;17.27;4.50;;;;;;;18.96;78.91;95515.50;5100639;28;20024;-65
2022/06/05 00:28:27;;;;;;;16.90;4.15;;;;;;;19.04;78.52;95514.53;5102902;28;20018;-65
2022/06/05 00:31:10;;;;;;;11.23;3.97;;;;;;;19.03;79.78;95521.75;5099420;28;20031;-65
2022/06/05 00:33:40;;;;;;;15.25;4.15;;;;;;;18.91;80.26;95525.97;5099872;28;20103;-65
2022/06/05 00:36:30;;;;;;;15.27;4.65;;;;;;;18.73;80.74;95534.50;5100937;28;20115;-65
2022/06/05 00:39:01;;;;;;;17.85;4.28;;;;;;;18.75;80.46;95543.94;5098244;28;20024;-65
2022/06/05 00:41:54;;;;;;;16.13;4.82;;;;;;;18.82;80.37;95553.81;5105224;28;20031;-65
2022/06/05 00:44:32;;;;;;;12.02;4.72;;;;;;;18.82;80.27;95561.81;5096115;28;20028;-66
2022/06/05 00:46:59;;;;;;;8.48;4.18;;;;;;;18.73;80.66;95566.50;5104447;28;20111;-65
2022/06/05 00:49:32;;;;;;;16.92;4.72;;;;;;;18.68;81.59;95569.75;5104673;28;20034;-65
2022/06/05 00:51:57;;;;;;;12.93;4.70;;;;;;;18.61;81.79;95567.03;5103020;28;20020;-65
2022/06/05 00:54:23;;;;;;;10.75;4.60;;;;;;;18.58;81.96;95575.41;5109810;28;20436;-65
2022/06/05 00:56:48;;;;;;;12.02;4.28;;;;;;;18.58;82.11;95583.41;5105948;28;20095;-64
2022/06/05 00:59:15;;;;;;;12.75;4.35;;;;;;;18.56;82.64;95588.13;5092409;28;20024;-66
2022/06/05 01:01:42;;;;;;;12.55;3.95;;;;;;;18.54;81.33;95594.66;5104097;28;20032;-65
2022/06/05 01:04:08;;;;;;;10.45;4.38;;;;;;;18.56;80.02;95601.44;5100086;28;20031;-65
2022/06/05 01:06:33;;;;;;;10.80;3.45;;;;;;;18.57;80.09;95600.44;5090681;28;20440;-66
2022/06/05 01:08:59;;;;;;;7.72;3.70;;;;;;;18.54;79.56;95600.81;5100903;28;20036;-66
2022/06/05 01:11:47;;;;;;;19.75;4.65;;;;;;;18.52;80.64;95610.84;5097707;28;20023;-65
2022/06/05 01:14:31;;;;;;;14.23;4.15;;;;;;;18.50;80.76;95615.56;5107387;28;20024;-65
2022/06/05 01:17:08;;;;;;;16.00;4.00;;;;;;;18.54;79.71;95626.63;5107054;28;20445;-65
2022/06/05 01:19:45;;;;;;;18.23;4.50;;;;;;;18.50;80.58;95615.56;5100636;28;20051;-65
2022/06/05 01:22:28;;;;;;;13.05;4.10;;;;;;;18.46;79.95;95624.97;5105049;28;20026;-66
2022/06/05 01:25:31;;;;;;;10.63;4.32;;;;;;;18.46;80.04;95635.63;5106728;28;20038;-65
2022/06/05 01:28:04;;;;;;;15.57;4.10;;;;;;;18.41;79.68;95633.53;5107422;28;20447;-65
2022/06/05 01:30:35;;;;;;;7.22;3.72;;;;;;;18.39;79.55;95642.72;5110351;28;20782;-65
2022/06/05 01:33:09;;;;;;;11.55;4.07;;;;;;;18.43;79.20;95642.16;5109673;28;20527;-65
2022/06/05 01:35:44;;;;;;;10.98;3.65;;;;;;;18.44;80.08;95645.63;5103069;28;20491;-66
2022/06/05 01:38:16;;;;;;;11.38;4.30;;;;;;;18.45;79.60;95636.63;5110254;28;20107;-66
2022/06/05 01:40:48;;;;;;;12.20;4.07;;;;;;;18.45;79.56;95641.94;5105971;28;20489;-66
2022/06/05 01:43:27;;;;;;;11.82;3.45;;;;;;;18.47;79.86;95642.59;5107198;28;20024;-65
2022/06/05 01:46:15;;;;;;;12.32;4.28;;;;;;;18.49;79.84;95648.56;5104633;28;20530;-66
2022/06/05 01:48:49;;;;;;;10.25;3.90;;;;;;;18.43;80.29;95647.50;5096681;28;20031;-65
2022/06/05 01:51:21;;;;;;;14.20;3.97;;;;;;;18.37;81.05;95650.09;5107984;28;20035;-66
2022/06/05 01:53:49;;;;;;;17.52;4.47;;;;;;;18.33;81.42;95653.16;5110883;28;20106;-66
2022/06/05 01:56:36;;;;;;;9.38;3.97;;;;;;;18.36;81.21;95645.78;5106592;28;20040;-65
2022/06/05 01:59:17;;;;;;;9.00;3.85;;;;;;;18.31;81.35;95641.00;5097141;28;20031;-66
2022/06/05 02:01:50;;;;;;;12.43;3.92;;;;;;;18.31;81.44;95649.84;5103087;28;20023;-66
2022/06/05 02:04:20;;;;;;;14.65;4.15;;;;;;;18.33;80.99;95662.97;5108283;28;20042;-66
2022/06/05 02:06:56;;;;;;;11.15;3.53;;;;;;;18.30;82.10;95653.53;5109480;28;20023;-66
2022/06/05 02:09:33;;;;;;;16.90;3.85;;;;;;;18.27;81.03;95645.94;5106231;28;20024;-66
2022/06/05 02:11:59;;;;;;;9.82;3.75;;;;;;;18.27;81.57;95647.75;5106451;28;20715;-66
2022/06/05 02:14:25;;;;;;;11.45;3.97;;;;;;;18.35;81.23;95657.47;5103938;28;20031;-66
2022/06/05 02:16:51;;;;;;;11.25;4.10;;;;;;;18.50;80.88;95646.72;5107333;28;20031;-66
2022/06/05 02:19:20;;;;;;;9.45;4.00;;;;;;;18.55;80.90;95650.44;5102644;28;20459;-66
2022/06/05 02:21:45;;;;;;;15.57;4.30;;;;;;;18.56;81.47;95646.78;5111054;28;20089;-66
2022/06/05 02:24:12;;;;;;;9.48;4.43;;;;;;;18.60;82.24;95645.34;5109512;28;20501;-65
2022/06/05 02:26:38;;;;;;;9.48;4.40;;;;;;;18.69;81.54;95642.56;5108606;28;20052;-66
2022/06/05 02:29:11;;;;;;;9.82;4.10;;;;;;;18.45;82.88;95640.13;5107503;28;20510;-65
2022/06/05 02:32:10;;;;;;;13.45;3.88;;;;;;;18.27;83.19;95635.28;5109228;28;20027;-66
2022/06/05 02:35:00;;;;;;;7.63;4.18;;;;;;;18.21;83.14;95622.69;5106713;28;20055;-66
2022/06/05 02:37:44;;;;;;;14.30;4.18;;;;;;;18.22;83.51;95628.84;5106353;28;20027;-66
2022/06/05 02:40:33;;;;;;;12.02;4.13;;;;;;;18.19;84.55;95630.06;5110115;28;20161;-65
2022/06/05 02:43:23;;;;;;;12.35;4.03;;;;;;;18.18;85.29;95623.91;5107454;28;20513;-66
2022/06/05 02:46:21;;;;;;;13.27;4.00;;;;;;;18.24;84.84;95626.81;5102935;28;20058;-65
2022/06/05 02:49:12;;;;;;;9.40;4.50;;;;;;;18.23;85.17;95625.19;5103024;28;20544;-66
2022/06/05 02:51:41;;;;;;;11.15;4.03;;;;;;;18.26;84.88;95622.13;5100130;28;20044;-66
2022/06/05 02:54:07;;;;;;;16.00;5.18;;;;;;;18.30;84.26;95623.38;5104092;28;20019;-66
2022/06/05 02:56:33;;;;;;;11.93;3.88;;;;;;;18.37;84.02;95623.44;5106890;28;20054;-66
2022/06/05 02:59:02;;;;;;;7.72;3.67;;;;;;;18.35;84.34;95622.81;5108724;28;20048;-67
2022/06/05 03:04:12;;;;;;;14.90;4.85;;;;;;;18.36;84.55;95624.47;5106710;28;20047;-66
2022/06/05 03:06:40;;;;;;;14.43;4.65;;;;;;;18.35;84.30;95622.81;5106163;28;20027;-66
2022/06/05 03:09:07;;;;;;;9.88;4.40;;;;;;;18.31;84.33;95627.69;5106528;28;20027;-66
2022/06/05 03:11:32;;;;;;;16.42;4.07;;;;;;;18.31;83.92;95627.69;5104162;28;20031;-65
2022/06/05 03:13:58;;;;;;;12.98;4.13;;;;;;;18.32;84.62;95629.34;5106555;28;20482;-65
2022/06/05 03:16:25;;;;;;;9.80;4.45;;;;;;;18.35;83.60;95620.16;5103767;28;20120;-65
2022/06/05 03:18:50;;;;;;;12.63;4.05;;;;;;;18.33;83.58;95623.84;5081973;28;20024;-66
2022/06/05 03:21:16;;;;;;;11.63;4.05;;;;;;;18.36;82.50;95630.63;5103768;28;20391;-66
2022/06/05 03:23:41;;;;;;;14.57;4.30;;;;;;;18.38;81.98;95631.25;5102445;28;20071;-66
2022/06/05 03:26:11;;;;;;;10.65;3.85;;;;;;;18.43;80.76;95626.16;5108068;28;20118;-65
2022/06/05 03:28:37;;;;;;;12.52;4.47;;;;;;;18.51;80.51;95627.03;5102902;28;20020;-66
2022/06/05 03:31:05;;;;;;;18.60;4.70;;;;;;;18.56;79.95;95627.28;5100150;28;20036;-65
2022/06/05 03:33:30;;;;;;;14.77;4.72;;;;;;;18.59;79.87;95619.72;5104195;28;20024;-65
2022/06/05 03:35:55;;;;;;;20.05;5.00;;;;;;;18.62;79.73;95618.53;5106570;28;20026;-66
2022/06/05 03:38:21;;;;;;;16.98;4.32;;;;;;;18.67;79.19;95632.09;5105741;28;20106;-65
2022/06/05 03:40:46;;;;;;;14.75;4.40;;;;;;;18.73;78.68;95625.97;5101487;28;20110;-65
2022/06/05 03:43:12;;;;;;;9.35;4.30;;;;;;;18.81;78.80;95635.66;5103711;28;20131;-66
2022/06/05 03:45:38;;;;;;;12.85;4.35;;;;;;;18.79;78.70;95640.38;5099584;28;20036;-66
2022/06/05 03:48:03;;;;;;;9.57;4.18;;;;;;;18.80;78.36;95642.00;5105088;28;20023;-65
2022/06/05 03:50:29;;;;;;;11.85;4.68;;;;;;;18.80;78.88;95644.69;5103356;28;20482;-65
2022/06/05 03:52:54;;;;;;;11.77;4.32;;;;;;;18.76;79.34;95646.09;5106136;28;20024;-66
2022/06/05 03:55:22;;;;;;;14.57;4.72;;;;;;;18.72;80.00;95660.84;5104865;28;20070;-66
2022/06/05 03:57:48;;;;;;;12.27;4.82;;;;;;;18.63;80.57;95667.31;5104639;28;20151;-65
2022/06/05 04:00:17;;;;;;;14.85;4.70;;;;;;;18.60;80.94;95668.53;5107302;28;20475;-66
2022/06/05 04:02:43;;;;;;;12.68;4.60;;;;;;;18.57;81.19;95667.06;5101525;28;20028;-66
2022/06/05 04:05:11;;;;;;;13.82;3.83;;;;;;;18.55;81.10;95662.94;5097306;28;20024;-66
2022/06/05 04:07:37;;;;;;;14.35;4.57;;;;;;;18.58;81.12;95654.59;5095998;28;20024;-66
2022/06/05 04:10:03;;;;;;;11.77;4.63;;;;;;;18.53;81.29;95652.50;5105962;28;20551;-66
2022/06/05 04:12:29;;;;;;;16.77;4.43;;;;;;;18.49;81.71;95664.56;5104227;28;20023;-66
2022/06/05 04:14:54;;;;;;;17.05;5.18;;;;;;;18.44;82.31;95653.63;5105752;28;20026;-65
2022/06/05 04:17:19;;;;;;;11.35;4.53;;;;;;;18.40;82.48;95663.03;5103268;28;20107;-66
2022/06/05 04:19:45;;;;;;;11.35;4.55;;;;;;;18.42;82.86;95667.16;5088801;28;20020;-66
2022/06/05 04:22:10;;;;;;;14.40;4.57;;;;;;;18.48;82.36;95676.25;5105752;28;20099;-66
2022/06/05 04:24:37;;;;;;;13.27;4.57;;;;;;;18.51;82.26;95670.53;5101752;28;20027;-66
2022/06/05 04:27:02;;;;;;;14.07;4.72;;;;;;;18.52;82.75;95666.84;5100655;28;20444;-66
2022/06/05 04:29:28;;;;;;;14.18;4.30;;;;;;;18.57;82.64;95664.41;5106824;28;20031;-66
2022/06/05 04:31:53;;;;;;;20.52;4.20;;;;;;;18.64;82.73;95674.28;5102794;28;20016;-66
2022/06/05 04:34:22;;;;;;;14.63;5.00;;;;;;;18.68;82.94;95665.72;5091868;28;20023;-66
2022/06/05 04:36:48;;;;;;;10.40;4.07;;;;;;;18.76;82.46;95667.44;5108151;28;20474;-66
2022/06/05 04:39:13;;;;;;;18.30;5.00;;;;;;;18.82;82.76;95663.97;5100714;28;20077;-66
2022/06/05 04:41:40;;;;;;;15.05;4.75;;;;;;;18.86;82.76;95651.09;5106821;28;20080;-67
2022/06/05 04:44:06;;;;;;;15.23;4.32;;;;;;;18.85;82.31;95650.25;5108644;28;20023;-67
2022/06/05 04:46:33;;;;;;;14.82;4.72;;;;;;;18.89;82.25;95638.16;5106553;28;20047;-66
2022/06/05 04:48:59;;;;;;;14.20;4.45;;;;;;;18.92;82.45;95644.16;5106878;28;20401;-66
2022/06/05 04:51:25;;;;;;;13.30;4.95;;;;;;;18.92;82.71;95649.50;5107146;28;20030;-65
2022/06/05 04:53:53;;;;;;;9.10;4.20;;;;;;;18.93;83.16;95664.47;5107107;28;20011;-66
2022/06/05 04:56:21;;;;;;;14.82;4.28;;;;;;;18.93;83.62;95654.59;5104807;28;20047;-66
2022/06/05 04:58:47;;;;;;;10.23;4.05;;;;;;;18.98;83.69;95662.03;5105878;28;20034;-65
2022/06/05 05:01:21;;;;;;;9.48;3.88;;;;;;;18.99;83.80;95653.03;5102683;28;20024;-66
2022/06/05 05:03:50;;;;;;;14.93;4.77;;;;;;;18.99;83.49;95661.03;5100581;28;20031;-66
2022/06/05 05:06:15;;;;;;;8.57;3.83;;;;;;;18.99;83.61;95674.38;5100323;28;20068;-67
2022/06/05 05:08:41;;;;;;;16.13;4.55;;;;;;;19.04;83.26;95659.44;5108777;28;20100;-66
2022/06/05 05:11:06;;;;;;;11.50;4.57;;;;;;;19.10;82.97;95673.81;5103396;28;20031;-66
2022/06/05 05:13:32;;;;;;;12.88;4.45;;;;;;;19.16;82.72;95672.22;5103071;28;20428;-66
2022/06/05 05:15:57;;;;;;;11.05;4.60;;;;;;;19.28;82.65;95673.31;5107028;28;20043;-66
2022/06/05 05:18:24;;;;;;;10.65;4.30;;;;;;;19.42;82.31;95678.72;5079734;28;20036;-66
2022/06/05 05:20:50;;;;;;;8.00;3.85;;;;;;;19.52;82.64;95681.03;5097959;28;20408;-66
2022/06/05 05:23:15;;;;;;;13.57;4.10;;;;;;;19.60;82.03;95680.88;5100687;28;20027;-66
2022/06/05 05:25:41;;;;;;;9.38;3.92;;;;;;;19.58;82.14;95685.59;5102687;28;20463;-66
2022/06/05 05:28:06;;;;;;;10.80;4.20;;;;;;;19.56;82.84;95687.59;5096254;28;20027;-66
2022/06/05 05:30:33;;;;;;;11.40;4.35;;;;;;;19.63;82.50;95698.31;5106849;28;20059;-67
2022/06/05 05:32:58;;;;;;;15.68;4.35;;;;;;;19.78;81.40;95700.84;5098299;28;20109;-67
2022/06/05 05:35:24;;;;;;;11.77;4.35;;;;;;;19.80;81.61;95704.97;5079255;28;20110;-66
2022/06/05 05:37:49;;;;;;;11.90;4.53;;;;;;;19.81;82.22;95700.47;5103829;28;20030;-67
2022/06/05 05:42:59;;;;;;;12.35;5.28;;;;;;;19.82;83.19;95699.44;5106860;28;20046;-66
2022/06/05 05:45:24;;;;;;;8.27;4.53;;;;;;;19.89;82.21;95700.28;5100319;28;20494;-67
2022/06/05 05:47:50;;;;;;;9.98;4.53;;;;;;;19.96;81.77;95703.81;5107431;28;20136;-66
2022/06/05 05:50:16;;;;;;;19.02;5.05;;;;;;;20.12;80.89;95704.47;5102297;28;20028;-65
2022/06/05 05:52:43;;;;;;;10.07;4.10;;;;;;;20.29;80.45;95705.75;5103086;28;20091;-66
2022/06/05 05:55:14;;;;;;;20.30;4.43;;;;;;;20.52;79.78;95693.88;5103709;28;20559;-65
2022/06/05 05:57:41;;;;;;;15.48;4.88;;;;;;;20.73;78.08;95686.66;5105392;28;20307;-65
2022/06/05 06:00:09;;;;;;;8.10;3.63;;;;;;;20.89;77.44;95690.81;5084825;28;20040;-65
2022/06/05 06:02:35;;;;;;;13.38;4.20;;;;;;;21.00;77.28;95697.38;5106149;28;20020;-67
2022/06/05 06:05:03;;;;;;;16.77;4.55;;;;;;;21.07;76.73;95700.06;5100122;28;20482;-66
2022/06/05 06:07:28;;;;;;;5.57;3.25;;;;;;;21.14;76.24;95688.31;5102893;27;20491;-66
2022/06/05 06:09:54;;;;;;;8.82;3.83;;;;;;;21.28;75.69;95688.25;5092661;28;20026;-67
2022/06/05 06:12:20;;;;;;;9.43;3.78;;;;;;;21.38;74.89;95694.03;5101929;28;20028;-65
2022/06/05 06:14:46;;;;;;;9.90;4.22;;;;;;;21.42;75.44;95694.41;5095146;28;20081;-65
2022/06/05 06:17:11;;;;;;;9.48;3.70;;;;;;;21.38;75.59;95693.19;5101164;28;20490;-65
2022/06/05 06:19:37;;;;;;;10.93;4.38;;;;;;;21.44;73.96;95692.34;5107512;28;20066;-66
2022/06/05 06:22:04;;;;;;;16.77;4.30;;;;;;;21.55;73.68;95690.84;5107517;28;20031;-66
2022/06/05 06:24:29;;;;;;;12.95;3.72;;;;;;;21.72;73.23;95680.53;5106261;28;20035;-66
2022/06/05 06:26:54;;;;;;;18.40;5.18;;;;;;;21.84;73.07;95683.38;5089735;28;20027;-66
2022/06/05 06:29:20;;;;;;;12.38;4.13;;;;;;;22.13;71.70;95678.47;5106442;28;20490;-66
2022/06/05 06:31:45;;;;;;;14.00;3.60;;;;;;;22.30;70.17;95687.66;5101994;28;20020;-65
2022/06/05 06:34:11;;;;;;;13.57;4.32;;;;;;;22.50;69.34;95681.38;5103065;28;20106;-66
2022/06/05 06:36:37;;;;;;;17.05;4.10;;;;;;;22.80;68.94;95686.06;5101009;28;20027;-63
2022/06/05 06:39:02;;;;;;;15.20;4.05;;;;;;;23.18;67.44;95686.97;5104390;28;20028;-62
2022/06/05 06:41:28;;;;;;;9.48;4.10;;;;;;;23.56;65.43;95693.22;5101737;28;20077;-63
2022/06/05 06:43:53;;;;;;;15.63;3.92;;;;;;;23.96;64.19;95684.66;5103816;28;20403;-63
2022/06/05 06:46:19;;;;;;;11.88;4.28;;;;;;;24.06;63.36;95689.50;5104549;28;20682;-64
2022/06/05 06:48:45;;;;;;;12.48;3.95;;;;;;;24.16;63.63;95691.66;5107888;28;20094;-63
2022/06/05 06:51:11;;;;;;;14.63;4.05;;;;;;;24.70;61.40;95693.56;5108614;28;20111;-64
2022/06/05 06:53:39;;;;;;;11.98;3.95;;;;;;;25.12;59.33;95693.53;5105210;28;20534;-63
2022/06/05 06:56:16;;;;;;;17.33;4.15;;;;;;;25.60;57.14;95705.09;5105243;28;20538;-63
2022/06/05 06:58:43;;;;;;;9.40;4.25;;;;;;;25.83;56.85;95710.69;5105700;28;20501;-64
2022/06/05 07:01:10;;;;;;;12.90;3.55;;;;;;;25.92;56.82;95703.84;5105133;28;20118;-63
2022/06/05 07:03:35;;;;;;;9.27;3.63;;;;;;;26.20;56.11;95720.31;5106427;28;20026;-63
2022/06/05 07:06:02;;;;;;;11.45;3.97;;;;;;;26.19;56.78;95715.97;5108001;28;20019;-63
2022/06/05 07:08:28;;;;;;;13.32;4.50;;;;;;;26.43;55.61;95716.72;5094877;28;20035;-65
2022/06/05 07:10:55;;;;;;;15.52;3.63;;;;;;;26.62;55.16;95719.16;5094509;27;20112;-63
2022/06/05 07:13:20;;;;;;;10.98;4.22;;;;;;;26.01;56.50;95715.06;5095221;27;20482;-63
2022/06/05 07:15:46;;;;;;;17.98;3.78;;;;;;;25.42;58.26;95706.03;5098598;27;20112;-63
2022/06/05 07:18:11;;;;;;;9.30;3.28;;;;;;;24.91;60.08;95715.63;5096297;27;20410;-64
2022/06/05 07:20:40;;;;;;;10.32;3.17;;;;;;;24.93;60.91;95708.16;5104487;27;20042;-65
2022/06/05 07:23:06;;;;;;;11.63;3.33;;;;;;;24.94;60.87;95704.41;5100910;27;20043;-64
2022/06/05 07:25:33;;;;;;;14.85;4.03;;;;;;;24.96;59.50;95707.69;5098861;27;20039;-64
2022/06/05 07:27:58;;;;;;;11.07;4.00;;;;;;;24.71;60.68;95711.34;5095784;27;20032;-64
2022/06/05 07:30:24;;;;;;;10.70;3.78;;;;;;;24.72;60.87;95707.63;5101433;27;20031;-64
2022/06/05 07:32:50;;;;;;;9.45;3.90;;;;;;;24.45;61.68;95710.72;5100862;27;20031;-64
2022/06/05 07:35:16;;;;;;;7.43;3.47;;;;;;;24.65;60.73;95712.25;5104980;27;20073;-64
2022/06/05 07:37:42;;;;;;;12.07;3.78;;;;;;;25.07;59.52;95704.16;5104215;28;20020;-63
2022/06/05 07:40:08;;;;;;;11.05;3.90;;;;;;;25.37;58.00;95708.63;5106375;28;20054;-63
2022/06/05 07:42:42;;;;;;;11.10;3.60;;;;;;;25.68;56.48;95695.81;5098770;28;20020;-63
2022/06/05 07:45:11;;;;;;;13.40;3.53;;;;;;;26.01;55.75;95690.78;5109858;28;20015;-63
2022/06/05 07:47:37;;;;;;;12.57;3.22;;;;;;;26.26;55.44;95681.56;5103451;28;20022;-64
2022/06/05 07:50:03;;;;;;;8.35;3.13;;;;;;;26.55;53.76;95679.66;5103354;28;20091;-65
2022/06/05 07:55:13;;;;;;;14.82;3.90;;;;;;;26.66;51.57;95691.44;5097742;28;20117;-64
2022/06/05 07:57:38;;;;;;;10.15;3.40;;;;;;;26.31;53.24;95685.19;5101179;28;20036;-63
2022/06/05 08:00:07;;;;;;;13.48;3.72;;;;;;;25.90;54.73;95676.28;5090715;28;20048;-65
2022/06/05 08:02:34;;;;;;;5.38;2.97;;;;;;;25.82;55.62;95672.09;5088757;28;20031;-64
2022/06/05 08:04:59;;;;;;;10.57;3.03;;;;;;;25.71;55.32;95667.56;5088585;28;20016;-64
2022/06/05 08:07:27;;;;;;;11.80;3.10;;;;;;;25.37;56.66;95670.06;5088573;28;20528;-64
2022/06/05 08:09:52;;;;;;;14.20;3.28;;;;;;;25.17;56.69;95668.56;5089000;28;20379;-64
2022/06/05 08:12:20;;;;;;;9.07;3.28;;;;;;;25.31;55.23;95658.34;5088676;28;20027;-63
2022/06/05 08:14:49;;;;;;;13.88;3.42;;;;;;;25.63;55.53;95659.84;5096073;28;20024;-64
2022/06/05 08:17:20;;;;;;;8.27;2.85;;;;;;;25.62;55.53;95661.72;5091720;28;20476;-63
2022/06/05 08:19:46;;;;;;;10.60;3.05;;;;;;;25.84;54.40;95653.81;5091583;28;20398;-64
2022/06/05 08:22:14;;;;;;;12.48;3.17;;;;;;;26.04;53.29;95644.47;5088792;28;20386;-64
2022/06/05 08:24:40;;;;;;;8.02;3.90;;;;;;;25.56;54.38;95657.31;5088655;28;20053;-64
2022/06/05 08:27:11;;;;;;;9.20;3.35;;;;;;;25.27;55.76;95649.09;5090149;28;20024;-65
2022/06/05 08:30:01;;;;;;;13.45;3.97;;;;;;;24.94;57.20;95656.75;5094014;28;20020;-63
2022/06/05 08:32:30;;;;;;;8.02;3.20;;;;;;;25.02;56.92;95658.25;5108795;28;20035;-65
2022/06/05 08:34:56;;;;;;;9.48;3.05;;;;;;;25.26;55.91;95672.56;5108982;28;20209;-64
2022/06/05 08:43:25;;;;;;;8.15;3.45;;;;;;;25.18;56.98;95662.13;5096683;28;20039;-64
2022/06/05 08:46:01;;;;;;;8.63;2.95;;;;;;;25.00;55.52;95665.75;5101988;28;20104;-65
2022/06/05 08:48:36;;;;;;;10.95;3.30;;;;;;;24.70;56.10;95654.00;5108811;28;20705;-63
2022/06/05 08:51:24;;;;;;;;;;;;;;;24.35;56.91;95659.31;5109331;28;20050;-64
2022/06/05 08:53:56;;;;;;;13.55;4.50;;;;;;;24.46;55.74;95669.31;5079517;28;19927;-66
2022/06/05 08:56:34;;;;;;;28.35;7.22;;;;;;;24.30;57.34;95687.75;5108490;28;20054;-66
2022/06/05 08:59:05;;;;;;;11.63;3.55;;;;;;;24.10;57.93;95706.03;5108671;28;20050;-66
2022/06/05 09:01:52;;;;;;;8.73;3.88;;;;;;;23.58;58.89;95726.88;5108546;28;20055;-67
2022/06/05 09:04:22;;;;;;;7.00;3.20;;;;;;;23.31;61.86;95731.69;5101402;28;20016;-65
2022/06/05 09:06:52;;;;;;;11.50;3.47;;;;;;;23.04;63.60;95727.38;5087176;28;20028;-63
2022/06/05 09:09:50;;;;;;;12.60;3.50;;;;;;;23.01;62.80;95716.25;5099755;28;20031;-62
2022/06/05 09:12:32;;;;;;;7.03;2.60;;;;;;;22.99;57.69;95716.47;5100366;28;20024;-63
2022/06/05 09:15:24;;;;;;;5.22;1.90;;;;;;;22.72;57.02;95731.97;5100167;28;20483;-62
2022/06/05 09:18:01;;;;;;;5.90;2.10;;;;;;;22.50;58.65;95737.69;5099365;28;20039;-62
2022/06/05 09:20:32;;;;;;;4.35;2.15;;;;;;;22.29;59.00;95754.88;5102478;28;20024;-62
2022/06/05 09:23:00;;;;;;;3.50;1.77;;;;;;;21.54;59.77;95766.88;5100293;28;20031;-62
2022/06/05 09:25:39;;;;;;;5.43;2.13;;;;;;;21.54;57.07;95772.25;5097653;28;20024;-62
2022/06/05 09:28:29;;;;;;;8.65;1.90;;;;;;;21.13;55.76;95808.94;5099858;28;20486;-62
2022/06/05 09:31:22;;;;;;;7.45;1.90;;;;;;;20.82;56.33;95819.22;5096785;28;20012;-62
2022/06/05 09:33:49;;;;;;;7.03;2.20;;;;;;;20.06;58.19;95825.53;5097778;28;20770;-62
2022/06/05 09:36:18;;;;;;;3.35;1.70;;;;;;;19.61;60.15;95856.88;5097409;28;20020;-62
2022/06/05 09:38:50;;;;;;;3.15;1.67;;;;;;;19.09;62.61;95858.13;5084474;28;20034;-61
2022/06/05 09:41:34;;;;;;;2.75;1.75;;;;;;;19.12;62.63;95847.06;5084010;28;20008;-62
2022/06/05 09:44:21;;;;;;;3.78;1.63;;;;;;;19.29;61.83;95836.94;5083609;28;20024;-61
2022/06/05 09:46:56;;;;;;;2.80;1.70;;;;;;;19.49;61.07;95854.94;5084305;28;20020;-63
2022/06/05 09:49:36;;;;;;;4.13;1.90;;;;;;;20.08;59.70;95850.22;5092148;28;20024;-63
2022/06/05 09:52:13;;;;;;;8.35;1.80;;;;;;;20.32;58.08;95849.72;5065182;28;20737;-63
2022/06/05 09:54:50;;;;;;;3.92;1.65;;;;;;;20.40;58.51;95848.72;5086138;28;20043;-62
2022/06/05 10:00:27;;;;;;;1.30;1.30;;;;;;;20.04;57.41;95868.47;5084051;28;20426;-62
2022/06/05 10:02:59;;;;;;;8.13;1.80;;;;;;;19.86;58.06;95875.13;5087510;28;20081;-63
2022/06/05 10:05:28;;;;;;;4.43;2.00;;;;;;;19.84;57.40;95863.81;5083205;28;20646;-63
2022/06/05 10:08:17;;;;;;;5.90;2.40;;;;;;;20.11;57.70;95855.16;5083452;28;20058;-63
2022/06/05 10:10:45;;;;;;;10.60;5.50;;;;;;;20.36;56.59;95854.66;5072353;28;20044;-63
2022/06/05 10:13:26;;;;;;;4.40;3.47;;;;;;;20.67;56.30;95853.28;5083403;28;20987;-64
2022/06/05 10:15:58;;;;;;;5.43;3.72;;;;;;;20.80;54.85;95850.69;5096751;28;20494;-63
2022/06/05 10:18:33;;;;;;;4.03;2.72;;;;;;;21.13;54.67;95855.28;5099015;28;20027;-63
2022/06/05 10:21:11;;;;;;;2.05;1.48;;;;;;;21.62;52.22;95844.34;5090749;28;20093;-63
2022/06/05 10:24:24;;;;;;;2.28;1.40;;;;;;;22.02;51.92;95852.34;5095622;28;20019;-64
2022/06/05 10:26:54;;;;;;;3.17;1.55;;;;;;;22.39;50.46;95851.81;5088714;28;20078;-63
2022/06/05 10:29:28;;;;;;;3.38;1.58;;;;;;;22.51;50.25;95856.53;5084815;28;20084;-63
2022/06/05 10:32:33;;;;;;;2.08;1.10;;;;;;;22.83;49.04;95845.84;5103599;28;20024;-64
2022/06/05 10:35:03;;;;;;;1.63;1.33;;;;;;;23.55;48.36;95842.84;5065986;28;20028;-63
2022/06/05 10:38:07;;;;;;;4.35;1.50;;;;;;;24.25;47.06;95858.91;5076168;28;20451;-63
2022/06/05 10:40:48;;;;;;;3.33;1.65;;;;;;;23.55;47.85;95863.53;5009603;28;20464;-62
2022/06/05 10:43:21;;;;;;;2.80;1.80;;;;;;;23.27;50.11;95865.59;5012729;28;20053;-62
2022/06/05 10:45:53;;;;;;;2.60;1.67;;;;;;;23.30;49.72;95861.63;5062464;28;20028;-63
2022/06/05 10:48:40;;;;;;;3.10;1.95;;;;;;;22.76;51.47;95861.97;5094611;28;20051;-63
2022/06/05 10:51:27;;;;;;;4.45;1.80;;;;;;;22.43;51.83;95855.69;5093625;28;20161;-64
2022/06/05 10:54:15;;;;;;;3.80;1.50;;;;;;;21.93;53.94;95853.59;5100538;28;20028;-63
2022/06/05 10:56:46;;;;;;;5.00;1.40;;;;;;;21.72;53.90;95855.50;5106167;28;20040;-65
2022/06/05 10:59:20;;;;;;;3.40;1.58;;;;;;;21.79;55.16;95844.75;5108731;28;20070;-63
2022/06/05 11:01:57;;;;;;;2.00;1.48;;;;;;;23.32;51.32;95854.19;5104408;28;20020;-63
2022/06/05 11:04:53;;;;;;;3.85;2.15;;;;;;;24.41;48.32;95854.78;5106762;28;20032;-65
2022/06/05 11:07:47;;;;;;;2.75;2.35;;;;;;;23.75;48.94;95864.16;5106410;28;20024;-64
2022/06/05 11:13:42;;;;;;;2.25;1.65;;;;;;;23.35;49.93;95848.41;5104583;28;20043;-63
2022/06/05 11:16:22;;;;;;;3.13;1.63;;;;;;;22.98;51.85;95851.72;5089450;28;20494;-65
2022/06/05 11:18:52;;;;;;;3.83;1.88;;;;;;;22.83;52.68;95860.06;5093124;28;20505;-64
2022/06/05 11:21:21;;;;;;;1.90;1.70;;;;;;;22.82;52.93;95860.31;5089456;28;20104;-63
2022/06/05 11:23:50;;;;;;;5.28;1.70;;;;;;;22.77;53.24;95860.09;5089408;28;20111;-65
2022/06/05 11:26:46;;;;;;;2.33;1.42;;;;;;;22.38;53.84;95857.38;5090413;28;20070;-65
2022/06/05 11:29:23;;;;;;;2.38;1.55;;;;;;;22.55;55.48;95853.19;5088713;28;20050;-64
2022/06/05 11:32:33;;;;;;;7.47;1.98;;;;;;;22.81;54.60;95851.41;5098890;28;20028;-62
2022/06/05 11:35:54;;;;;;;1.63;1.30;;;;;;;22.23;54.94;95847.75;5101008;28;20105;-61
2022/06/05 11:39:13;;;;;;;1.80;1.38;;;;;;;21.97;54.48;95841.41;5059805;28;20040;-60
2022/06/05 11:42:05;;;;;;;7.03;1.70;;;;;;;22.28;53.19;95837.22;5023420;28;20033;-60
2022/06/05 11:44:51;;;;;;;2.10;1.30;;;;;;;22.44;54.25;95845.81;5090596;28;20043;-61
2022/06/05 11:47:38;;;;;;;3.22;1.40;;;;;;;22.51;53.52;95849.31;5103312;28;20715;-62
2022/06/05 11:50:33;;;;;;;3.08;1.40;;;;;;;22.55;52.61;95852.41;5100716;28;20027;-61
2022/06/05 11:53:24;;;;;;;4.30;1.80;;;;;;;23.59;51.21;95854.78;5098552;28;20027;-63
2022/06/05 11:56:15;;;;;;;1.95;1.17;;;;;;;24.54;48.27;95851.94;5096222;28;20301;-61
2022/06/05 11:58:59;;;;;;;3.28;1.50;;;;;;;24.16;47.92;95850.31;5098973;28;20051;-62
2022/06/05 12:01:29;;;;;;;1.40;1.30;;;;;;;23.84;48.36;95853.13;5093102;28;20036;-62
2022/06/05 12:04:05;;;;;;;1.55;1.15;;;;;;;24.12;48.00;95833.84;5088933;28;20050;-62
2022/06/05 12:06:52;;;;;;;3.08;1.52;;;;;;;24.35;47.49;95824.25;5088530;28;20576;-63
2022/06/05 12:09:22;;;;;;;2.50;1.38;;;;;;;23.74;48.45;95824.88;5088713;28;20031;-63
2022/06/05 12:11:53;;;;;;;3.15;1.38;;;;;;;23.25;49.45;95829.22;5088226;28;20039;-63
2022/06/05 12:14:41;;;;;;;1.20;1.10;;;;;;;23.02;50.09;95838.69;5088649;28;20558;-64
2022/06/05 12:17:16;;;;;;;2.80;1.42;;;;;;;22.86;51.28;95845.41;5090907;28;20026;-65